sensor_id;sensor_type;location;lat;lon;timestamp;pressure;altitude;pressure_sealevel;temperature;humidity
4346;BME280;2186;49.866;7.986;2023-09-18T00:00:04;99458.75;;;19.78;100.00
4346;BME280;2186;49.866;7.986;2023-09-18T00:02:38;99444.28;;;19.79;100.00
4346;BME280;2186;49.866;7.986;2023-09-18T00:05:06;99444.03;;;19.93;100.00
4346;BME280;2186;49.866;7.986;2023-09-18T00:07:32;99445.13;;;20.02;100.00
4346;BME280;2186;49.866;7.986;2023-09-18T00:09:59;99435.41;;;20.10;100.00
4346;BME280;2186;49.866;7.986;2023-09-18T00:12:25;99434.53;;;20.32;100.00
4346;BME280;2186;49.866;7.986;2023-09-18T00:14:51;99434.03;;;20.27;100.00
4346;BME280;2186;49.866;7.986;2023-09-18T00:17:18;99435.00;;;20.26;100.00
4346;BME280;2186;49.866;7.986;2023-09-18T00:19:45;99428.28;;;20.32;100.00
4346;BME280;2186;49.866;7.986;2023-09-18T00:22:12;99433.03;;;20.28;100.00
4346;BME280;2186;49.866;7.986;2023-09-18T00:24:38;99425.91;;;20.38;99.59
4346;BME280;2186;49.866;7.986;2023-09-18T00:27:05;99427.91;;;20.14;100.00
4346;BME280;2186;49.866;7.986;2023-09-18T00:29:32;99420.81;;;20.13;100.00
4346;BME280;2186;49.866;7.986;2023-09-18T00:31:58;99410.25;;;20.21;100.00
4346;BME280;2186;49.866;7.986;2023-09-18T00:34:25;99414.19;;;20.17;100.00
4346;BME280;2186;49.866;7.986;2023-09-18T00:36:51;99404.66;;;20.02;100.00
4346;BME280;2186;49.866;7.986;2023-09-18T00:39:18;99405.00;;;20.08;100.00
4346;BME280;2186;49.866;7.986;2023-09-18T00:41:44;99401.06;;;20.12;100.00
4346;BME280;2186;49.866;7.986;2023-09-18T00:44:15;99393.63;;;19.94;100.00
4346;BME280;2186;49.866;7.986;2023-09-18T00:46:43;99393.59;;;20.16;99.93
4346;BME280;2186;49.866;7.986;2023-09-18T00:49:09;99383.56;;;20.07;100.00
4346;BME280;2186;49.866;7.986;2023-09-18T00:51:36;99389.53;;;20.10;100.00
4346;BME280;2186;49.866;7.986;2023-09-18T00:54:03;99398.38;;;20.12;100.00
4346;BME280;2186;49.866;7.986;2023-09-18T00:56:30;99391.06;;;20.03;100.00
4346;BME280;2186;49.866;7.986;2023-09-18T00:58:56;99404.06;;;19.87;100.00
4346;BME280;2186;49.866;7.986;2023-09-18T01:01:23;99395.63;;;19.80;100.00
4346;BME280;2186;49.866;7.986;2023-09-18T01:03:50;99383.72;;;19.83;100.00
4346;BME280;2186;49.866;7.986;2023-09-18T01:06:17;99393.91;;;19.68;100.00
4346;BME280;2186;49.866;7.986;2023-09-18T01:08:46;99394.22;;;19.97;100.00
4346;BME280;2186;49.866;7.986;2023-09-18T01:11:28;99397.78;;;19.98;100.00
4346;BME280;2186;49.866;7.986;2023-09-18T01:14:04;99399.63;;;20.08;100.00
4346;BME280;2186;49.866;7.986;2023-09-18T01:16:50;99396.19;;;20.06;100.00
4346;BME280;2186;49.866;7.986;2023-09-18T01:19:34;99401.78;;;20.15;100.00
4346;BME280;2186;49.866;7.986;2023-09-18T01:22:01;99388.66;;;20.21;100.00
4346;BME280;2186;49.866;7.986;2023-09-18T01:24:27;99396.63;;;20.23;100.00
4346;BME280;2186;49.866;7.986;2023-09-18T01:26:57;99391.78;;;20.37;100.00
4346;BME280;2186;49.866;7.986;2023-09-18T01:29:23;99388.91;;;20.29;100.00
4346;BME280;2186;49.866;7.986;2023-09-18T01:31:49;99390.97;;;20.26;100.00
4346;BME280;2186;49.866;7.986;2023-09-18T01:34:31;99400.84;;;20.16;100.00
4346;BME280;2186;49.866;7.986;2023-09-18T01:37:00;99405.97;;;20.19;100.00
4346;BME280;2186;49.866;7.986;2023-09-18T01:39:27;99513.53;;;20.12;100.00
4346;BME280;2186;49.866;7.986;2023-09-18T01:42:04;99445.88;;;20.04;100.00
4346;BME280;2186;49.866;7.986;2023-09-18T01:44:32;99494.97;;;20.41;100.00
4346;BME280;2186;49.866;7.986;2023-09-18T01:47:02;99463.00;;;20.80;100.00
4346;BME280;2186;49.866;7.986;2023-09-18T01:49:31;99490.56;;;20.94;100.00
4346;BME280;2186;49.866;7.986;2023-09-18T01:51:58;99473.03;;;20.89;100.00
4346;BME280;2186;49.866;7.986;2023-09-18T01:54:24;99475.03;;;21.08;100.00
4346;BME280;2186;49.866;7.986;2023-09-18T01:56:52;99472.50;;;20.95;100.00
4346;BME280;2186;49.866;7.986;2023-09-18T01:59:20;99460.66;;;20.86;100.00
4346;BME280;2186;49.866;7.986;2023-09-18T02:01:47;99451.09;;;21.03;100.00
4346;BME280;2186;49.866;7.986;2023-09-18T02:04:14;99447.84;;;20.88;100.00
4346;BME280;2186;49.866;7.986;2023-09-18T02:07:00;99429.25;;;20.74;100.00
4346;BME280;2186;49.866;7.986;2023-09-18T02:09:27;99426.19;;;20.67;100.00
4346;BME280;2186;49.866;7.986;2023-09-18T02:11:53;99409.22;;;20.77;100.00
4346;BME280;2186;49.866;7.986;2023-09-18T02:14:20;99397.88;;;20.83;100.00
4346;BME280;2186;49.866;7.986;2023-09-18T02:16:46;99400.53;;;20.73;100.00
4346;BME280;2186;49.866;7.986;2023-09-18T02:19:13;99399.63;;;20.52;100.00
4346;BME280;2186;49.866;7.986;2023-09-18T02:21:40;99389.41;;;20.55;100.00
4346;BME280;2186;49.866;7.986;2023-09-18T02:24:07;99402.81;;;20.57;100.00
4346;BME280;2186;49.866;7.986;2023-09-18T02:26:34;99403.41;;;20.60;100.00
4346;BME280;2186;49.866;7.986;2023-09-18T02:29:03;99394.78;;;20.66;100.00
4346;BME280;2186;49.866;7.986;2023-09-18T02:31:30;99403.97;;;20.75;100.00
4346;BME280;2186;49.866;7.986;2023-09-18T02:33:56;99403.78;;;20.56;100.00
4346;BME280;2186;49.866;7.986;2023-09-18T02:36:23;99395.91;;;20.64;100.00
4346;BME280;2186;49.866;7.986;2023-09-18T02:38:49;99400.03;;;20.36;100.00
4346;BME280;2186;49.866;7.986;2023-09-18T02:41:16;99378.63;;;20.55;100.00
4346;BME280;2186;49.866;7.986;2023-09-18T02:43:43;99368.91;;;20.21;100.00
4346;BME280;2186;49.866;7.986;2023-09-18T02:46:09;99401.88;;;20.35;100.00
4346;BME280;2186;49.866;7.986;2023-09-18T02:48:36;99389.00;;;20.28;100.00
4346;BME280;2186;49.866;7.986;2023-09-18T02:51:02;99404.34;;;20.27;100.00
4346;BME280;2186;49.866;7.986;2023-09-18T02:53:29;99392.06;;;20.46;100.00
4346;BME280;2186;49.866;7.986;2023-09-18T02:55:57;99380.47;;;20.55;100.00
4346;BME280;2186;49.866;7.986;2023-09-18T02:58:24;99381.00;;;20.49;100.00
4346;BME280;2186;49.866;7.986;2023-09-18T03:00:57;99358.81;;;20.45;100.00
4346;BME280;2186;49.866;7.986;2023-09-18T03:03:26;99344.63;;;20.53;100.00
4346;BME280;2186;49.866;7.986;2023-09-18T03:05:53;99356.56;;;20.50;100.00
4346;BME280;2186;49.866;7.986;2023-09-18T03:08:26;99353.53;;;20.64;100.00
4346;BME280;2186;49.866;7.986;2023-09-18T03:10:52;99361.91;;;20.61;100.00
4346;BME280;2186;49.866;7.986;2023-09-18T03:13:19;99355.94;;;20.79;100.00
4346;BME280;2186;49.866;7.986;2023-09-18T03:15:46;99363.94;;;20.69;100.00
4346;BME280;2186;49.866;7.986;2023-09-18T03:18:13;99371.88;;;20.61;100.00
4346;BME280;2186;49.866;7.986;2023-09-18T03:20:40;99386.31;;;20.71;100.00
4346;BME280;2186;49.866;7.986;2023-09-18T03:23:07;99388.47;;;20.56;100.00
4346;BME280;2186;49.866;7.986;2023-09-18T03:25:35;99391.88;;;20.58;100.00
4346;BME280;2186;49.866;7.986;2023-09-18T03:28:17;99380.94;;;20.60;100.00
4346;BME280;2186;49.866;7.986;2023-09-18T03:30:43;99379.59;;;20.22;100.00
4346;BME280;2186;49.866;7.986;2023-09-18T03:33:10;99380.09;;;20.16;100.00
4346;BME280;2186;49.866;7.986;2023-09-18T03:35:50;99373.00;;;20.15;100.00
4346;BME280;2186;49.866;7.986;2023-09-18T03:38:17;99371.31;;;20.03;100.00
4346;BME280;2186;49.866;7.986;2023-09-18T03:40:44;99384.00;;;20.23;100.00
4346;BME280;2186;49.866;7.986;2023-09-18T03:43:11;99387.53;;;20.24;100.00
4346;BME280;2186;49.866;7.986;2023-09-18T03:45:39;99390.03;;;20.16;100.00
4346;BME280;2186;49.866;7.986;2023-09-18T03:48:08;99381.41;;;20.33;100.00
4346;BME280;2186;49.866;7.986;2023-09-18T03:50:35;99377.19;;;20.40;100.00
4346;BME280;2186;49.866;7.986;2023-09-18T03:53:02;99366.47;;;20.18;100.00
4346;BME280;2186;49.866;7.986;2023-09-18T03:55:29;99374.00;;;20.03;100.00
4346;BME280;2186;49.866;7.986;2023-09-18T03:57:56;99370.06;;;20.07;100.00
4346;BME280;2186;49.866;7.986;2023-09-18T04:00:22;99367.00;;;20.00;100.00
4346;BME280;2186;49.866;7.986;2023-09-18T04:02:49;99367.34;;;20.18;100.00
4346;BME280;2186;49.866;7.986;2023-09-18T04:05:16;99367.69;;;20.13;100.00
4346;BME280;2186;49.866;7.986;2023-09-18T04:07:42;99360.56;;;20.24;100.00
4346;BME280;2186;49.866;7.986;2023-09-18T04:10:13;99356.75;;;20.26;100.00
4346;BME280;2186;49.866;7.986;2023-09-18T04:12:50;99330.59;;;20.27;100.00
4346;BME280;2186;49.866;7.986;2023-09-18T04:15:17;99335.53;;;20.22;100.00
4346;BME280;2186;49.866;7.986;2023-09-18T04:17:45;99331.34;;;20.29;100.00
4346;BME280;2186;49.866;7.986;2023-09-18T04:20:11;99331.28;;;20.19;100.00
4346;BME280;2186;49.866;7.986;2023-09-18T04:22:44;99323.78;;;20.11;100.00
4346;BME280;2186;49.866;7.986;2023-09-18T04:25:12;99321.47;;;20.18;100.00
4346;BME280;2186;49.866;7.986;2023-09-18T04:27:38;99322.28;;;20.30;100.00
4346;BME280;2186;49.866;7.986;2023-09-18T04:30:06;99312.06;;;20.33;100.00
4346;BME280;2186;49.866;7.986;2023-09-18T04:32:32;99297.97;;;20.30;100.00
4346;BME280;2186;49.866;7.986;2023-09-18T04:34:59;99295.28;;;20.30;100.00
4346;BME280;2186;49.866;7.986;2023-09-18T04:37:25;99294.16;;;20.32;100.00
4346;BME280;2186;49.866;7.986;2023-09-18T04:39:52;99288.59;;;20.45;100.00
4346;BME280;2186;49.866;7.986;2023-09-18T04:42:18;99305.53;;;20.47;100.00
4346;BME280;2186;49.866;7.986;2023-09-18T04:44:45;99307.84;;;20.40;100.00
4346;BME280;2186;49.866;7.986;2023-09-18T04:47:12;99300.00;;;20.37;100.00
4346;BME280;2186;49.866;7.986;2023-09-18T04:49:38;99314.63;;;20.35;100.00
4346;BME280;2186;49.866;7.986;2023-09-18T04:52:05;99334.63;;;20.44;100.00
4346;BME280;2186;49.866;7.986;2023-09-18T04:54:31;99337.00;;;20.26;100.00
4346;BME280;2186;49.866;7.986;2023-09-18T04:56:58;99338.38;;;20.52;100.00
4346;BME280;2186;49.866;7.986;2023-09-18T04:59:24;99342.22;;;20.38;100.00
4346;BME280;2186;49.866;7.986;2023-09-18T05:01:51;99368.75;;;20.33;100.00
4346;BME280;2186;49.866;7.986;2023-09-18T05:04:17;99377.13;;;20.30;100.00
4346;BME280;2186;49.866;7.986;2023-09-18T05:06:44;99400.31;;;20.22;100.00
4346;BME280;2186;49.866;7.986;2023-09-18T05:09:11;99386.44;;;20.26;100.00
4346;BME280;2186;49.866;7.986;2023-09-18T05:11:37;99390.00;;;20.27;100.00
4346;BME280;2186;49.866;7.986;2023-09-18T05:14:04;99407.53;;;20.32;100.00
4346;BME280;2186;49.866;7.986;2023-09-18T05:16:32;99404.44;;;20.48;100.00
4346;BME280;2186;49.866;7.986;2023-09-18T05:19:01;99407.47;;;20.55;100.00
4346;BME280;2186;49.866;7.986;2023-09-18T05:21:29;99393.53;;;20.27;100.00
4346;BME280;2186;49.866;7.986;2023-09-18T05:23:56;99397.22;;;20.26;100.00
4346;BME280;2186;49.866;7.986;2023-09-18T05:26:22;99387.91;;;20.30;100.00
4346;BME280;2186;49.866;7.986;2023-09-18T05:28:51;99358.31;;;19.97;100.00
4346;BME280;2186;49.866;7.986;2023-09-18T05:31:18;99384.25;;;20.20;100.00
4346;BME280;2186;49.866;7.986;2023-09-18T05:33:44;99389.78;;;20.19;100.00
4346;BME280;2186;49.866;7.986;2023-09-18T05:36:13;99390.13;;;20.25;100.00
4346;BME280;2186;49.866;7.986;2023-09-18T05:38:40;99366.44;;;20.29;100.00
4346;BME280;2186;49.866;7.986;2023-09-18T05:41:06;99369.34;;;20.05;100.00
4346;BME280;2186;49.866;7.986;2023-09-18T05:43:33;99385.94;;;20.32;100.00
4346;BME280;2186;49.866;7.986;2023-09-18T05:45:59;99388.84;;;20.52;100.00
4346;BME280;2186;49.866;7.986;2023-09-18T05:48:25;99372.41;;;20.76;100.00
4346;BME280;2186;49.866;7.986;2023-09-18T05:50:52;99375.88;;;20.66;100.00
4346;BME280;2186;49.866;7.986;2023-09-18T05:53:20;99379.59;;;20.86;100.00
4346;BME280;2186;49.866;7.986;2023-09-18T05:55:47;99372.59;;;20.63;100.00
4346;BME280;2186;49.866;7.986;2023-09-18T05:58:13;99359.84;;;20.54;100.00
4346;BME280;2186;49.866;7.986;2023-09-18T06:00:40;99366.63;;;20.48;100.00
4346;BME280;2186;49.866;7.986;2023-09-18T06:03:06;99374.44;;;20.62;100.00
4346;BME280;2186;49.866;7.986;2023-09-18T06:05:33;99383.00;;;20.67;100.00
4346;BME280;2186;49.866;7.986;2023-09-18T06:08:01;99387.63;;;20.77;100.00
4346;BME280;2186;49.866;7.986;2023-09-18T06:10:27;99391.25;;;20.87;100.00
4346;BME280;2186;49.866;7.986;2023-09-18T06:12:54;99391.91;;;21.00;100.00
4346;BME280;2186;49.866;7.986;2023-09-18T06:15:20;99391.06;;;20.99;100.00
4346;BME280;2186;49.866;7.986;2023-09-18T06:17:47;99383.41;;;21.05;100.00
4346;BME280;2186;49.866;7.986;2023-09-18T06:20:14;99385.91;;;20.96;100.00
4346;BME280;2186;49.866;7.986;2023-09-18T06:22:42;99396.19;;;21.03;100.00
4346;BME280;2186;49.866;7.986;2023-09-18T06:25:09;99408.31;;;21.08;100.00
4346;BME280;2186;49.866;7.986;2023-09-18T06:27:37;99411.72;;;21.10;100.00
4346;BME280;2186;49.866;7.986;2023-09-18T06:30:05;99408.72;;;21.04;100.00
4346;BME280;2186;49.866;7.986;2023-09-18T06:32:31;99409.84;;;21.01;100.00
4346;BME280;2186;49.866;7.986;2023-09-18T06:34:58;99419.84;;;21.10;100.00
4346;BME280;2186;49.866;7.986;2023-09-18T06:37:25;99441.22;;;21.13;100.00
4346;BME280;2186;49.866;7.986;2023-09-18T06:39:51;99430.69;;;21.31;99.89
4346;BME280;2186;49.866;7.986;2023-09-18T06:42:18;99434.84;;;21.35;99.58
4346;BME280;2186;49.866;7.986;2023-09-18T06:44:45;99450.56;;;21.51;99.36
4346;BME280;2186;49.866;7.986;2023-09-18T06:47:11;99447.97;;;21.40;99.13
4346;BME280;2186;49.866;7.986;2023-09-18T06:49:38;99458.38;;;21.44;98.56
4346;BME280;2186;49.866;7.986;2023-09-18T06:52:04;99458.47;;;21.64;97.97
4346;BME280;2186;49.866;7.986;2023-09-18T06:54:32;99443.78;;;21.56;97.92
4346;BME280;2186;49.866;7.986;2023-09-18T06:56:59;99446.34;;;21.58;98.06
4346;BME280;2186;49.866;7.986;2023-09-18T06:59:25;99448.56;;;21.74;96.96
4346;BME280;2186;49.866;7.986;2023-09-18T07:01:54;99441.72;;;21.70;97.22
4346;BME280;2186;49.866;7.986;2023-09-18T07:04:21;99448.78;;;21.92;96.33
4346;BME280;2186;49.866;7.986;2023-09-18T07:06:47;99433.53;;;21.81;96.65
4346;BME280;2186;49.866;7.986;2023-09-18T07:09:14;99442.28;;;22.04;95.48
4346;BME280;2186;49.866;7.986;2023-09-18T07:11:41;99442.19;;;22.15;95.68
4346;BME280;2186;49.866;7.986;2023-09-18T07:14:07;99445.78;;;21.85;96.16
4346;BME280;2186;49.866;7.986;2023-09-18T07:16:34;99462.78;;;21.97;95.71
4346;BME280;2186;49.866;7.986;2023-09-18T07:19:01;99464.44;;;21.88;96.27
4346;BME280;2186;49.866;7.986;2023-09-18T07:21:30;99461.72;;;21.88;96.37
4346;BME280;2186;49.866;7.986;2023-09-18T07:23:57;99453.88;;;22.15;95.50
4346;BME280;2186;49.866;7.986;2023-09-18T07:26:23;99459.44;;;22.14;94.94
4346;BME280;2186;49.866;7.986;2023-09-18T07:28:50;99456.50;;;22.27;94.53
4346;BME280;2186;49.866;7.986;2023-09-18T07:31:16;99459.28;;;22.15;94.12
4346;BME280;2186;49.866;7.986;2023-09-18T07:33:43;99461.44;;;22.12;94.44
4346;BME280;2186;49.866;7.986;2023-09-18T07:36:10;99450.06;;;22.28;93.81
4346;BME280;2186;49.866;7.986;2023-09-18T07:38:36;99455.78;;;22.25;93.29
4346;BME280;2186;49.866;7.986;2023-09-18T07:41:04;99466.88;;;22.22;93.64
4346;BME280;2186;49.866;7.986;2023-09-18T07:43:30;99470.03;;;22.27;93.02
4346;BME280;2186;49.866;7.986;2023-09-18T07:45:57;99476.03;;;22.40;93.47
4346;BME280;2186;49.866;7.986;2023-09-18T07:48:24;99478.19;;;22.36;93.13
4346;BME280;2186;49.866;7.986;2023-09-18T07:50:51;99480.44;;;22.31;93.08
4346;BME280;2186;49.866;7.986;2023-09-18T07:53:18;99483.47;;;22.47;92.74
4346;BME280;2186;49.866;7.986;2023-09-18T07:55:45;99488.03;;;22.47;92.34
4346;BME280;2186;49.866;7.986;2023-09-18T07:58:12;99492.19;;;22.51;91.88
4346;BME280;2186;49.866;7.986;2023-09-18T08:00:38;99500.59;;;22.48;92.23
4346;BME280;2186;49.866;7.986;2023-09-18T08:03:05;99502.59;;;22.56;91.60
4346;BME280;2186;49.866;7.986;2023-09-18T08:05:32;99508.25;;;22.43;92.04
4346;BME280;2186;49.866;7.986;2023-09-18T08:07:58;99511.69;;;22.45;91.85
4346;BME280;2186;49.866;7.986;2023-09-18T08:10:31;99506.59;;;22.52;92.33
4346;BME280;2186;49.866;7.986;2023-09-18T08:12:58;99504.84;;;22.41;92.34
4346;BME280;2186;49.866;7.986;2023-09-18T08:15:24;99505.69;;;22.41;91.53
4346;BME280;2186;49.866;7.986;2023-09-18T08:17:51;99506.72;;;22.50;91.59
4346;BME280;2186;49.866;7.986;2023-09-18T08:20:19;99516.63;;;22.80;90.48
4346;BME280;2186;49.866;7.986;2023-09-18T08:22:46;99514.47;;;22.64;90.25
4346;BME280;2186;49.866;7.986;2023-09-18T08:25:14;99514.16;;;22.48;90.24
4346;BME280;2186;49.866;7.986;2023-09-18T08:27:41;99518.03;;;22.74;89.72
4346;BME280;2186;49.866;7.986;2023-09-18T08:30:11;99508.91;;;22.66;88.45
4346;BME280;2186;49.866;7.986;2023-09-18T08:32:39;99498.34;;;22.63;89.10
4346;BME280;2186;49.866;7.986;2023-09-18T08:35:08;99495.50;;;22.64;89.50
4346;BME280;2186;49.866;7.986;2023-09-18T08:37:35;99494.47;;;22.75;88.66
4346;BME280;2186;49.866;7.986;2023-09-18T08:40:01;99501.38;;;22.89;88.42
4346;BME280;2186;49.866;7.986;2023-09-18T08:42:40;99517.44;;;22.71;87.95
4346;BME280;2186;49.866;7.986;2023-09-18T08:45:09;99525.72;;;22.69;88.33
4346;BME280;2186;49.866;7.986;2023-09-18T08:47:40;99519.44;;;22.69;87.91
4346;BME280;2186;49.866;7.986;2023-09-18T08:50:10;99520.44;;;22.68;87.97
4346;BME280;2186;49.866;7.986;2023-09-18T08:52:37;99524.44;;;22.73;87.38
4346;BME280;2186;49.866;7.986;2023-09-18T08:57:41;99531.97;;;22.60;87.99
4346;BME280;2186;49.866;7.986;2023-09-18T09:00:08;99528.00;;;22.64;87.72
4346;BME280;2186;49.866;7.986;2023-09-18T09:02:38;99524.00;;;22.68;87.99
4346;BME280;2186;49.866;7.986;2023-09-18T09:05:05;99517.41;;;22.61;87.92
4346;BME280;2186;49.866;7.986;2023-09-18T09:07:32;99521.97;;;22.61;86.75
4346;BME280;2186;49.866;7.986;2023-09-18T09:09:58;99525.38;;;22.93;86.35
4346;BME280;2186;49.866;7.986;2023-09-18T09:12:47;99521.59;;;22.65;87.09
4346;BME280;2186;49.866;7.986;2023-09-18T09:15:15;99523.84;;;22.51;87.86
4346;BME280;2186;49.866;7.986;2023-09-18T09:17:42;99513.28;;;22.57;88.44
4346;BME280;2186;49.866;7.986;2023-09-18T09:20:12;99512.47;;;22.66;87.75
4346;BME280;2186;49.866;7.986;2023-09-18T09:22:40;99510.19;;;22.62;88.06
4346;BME280;2186;49.866;7.986;2023-09-18T09:25:30;99503.97;;;22.90;87.34
4346;BME280;2186;49.866;7.986;2023-09-18T09:28:03;99517.84;;;22.57;88.41
4346;BME280;2186;49.866;7.986;2023-09-18T09:30:32;99530.97;;;22.61;88.02
4346;BME280;2186;49.866;7.986;2023-09-18T09:32:59;99527.16;;;22.73;87.89
4346;BME280;2186;49.866;7.986;2023-09-18T09:35:31;99523.91;;;22.80;87.75
4346;BME280;2186;49.866;7.986;2023-09-18T09:38:01;99509.03;;;22.74;87.64
4346;BME280;2186;49.866;7.986;2023-09-18T09:40:35;99515.44;;;22.73;87.86
4346;BME280;2186;49.866;7.986;2023-09-18T09:43:08;99520.19;;;22.81;87.11
4346;BME280;2186;49.866;7.986;2023-09-18T09:45:34;99527.16;;;22.73;87.13
4346;BME280;2186;49.866;7.986;2023-09-18T09:48:05;99525.38;;;23.03;87.31
4346;BME280;2186;49.866;7.986;2023-09-18T09:50:35;99525.66;;;22.90;87.06
4346;BME280;2186;49.866;7.986;2023-09-18T09:53:12;99523.53;;;23.03;86.07
4346;BME280;2186;49.866;7.986;2023-09-18T09:55:40;99520.94;;;23.21;86.46
4346;BME280;2186;49.866;7.986;2023-09-18T09:58:08;99516.94;;;23.25;86.25
4346;BME280;2186;49.866;7.986;2023-09-18T10:00:46;99513.09;;;23.28;86.03
4346;BME280;2186;49.866;7.986;2023-09-18T10:03:17;99526.19;;;23.52;85.42
4346;BME280;2186;49.866;7.986;2023-09-18T10:05:47;99532.78;;;23.40;85.04
4346;BME280;2186;49.866;7.986;2023-09-18T10:08:21;99537.22;;;23.12;85.66
4346;BME280;2186;49.866;7.986;2023-09-18T10:10:51;99534.22;;;23.24;85.92
4346;BME280;2186;49.866;7.986;2023-09-18T10:13:20;99535.06;;;23.15;85.60
4346;BME280;2186;49.866;7.986;2023-09-18T10:15:50;99538.06;;;23.12;85.59
4346;BME280;2186;49.866;7.986;2023-09-18T10:18:24;99538.94;;;23.32;85.63
4346;BME280;2186;49.866;7.986;2023-09-18T10:21:03;99540.66;;;23.33;84.72
4346;BME280;2186;49.866;7.986;2023-09-18T10:23:55;99541.06;;;23.48;84.97
4346;BME280;2186;49.866;7.986;2023-09-18T10:26:26;99528.94;;;23.32;85.45
4346;BME280;2186;49.866;7.986;2023-09-18T10:28:58;99531.66;;;23.32;85.07
4346;BME280;2186;49.866;7.986;2023-09-18T10:31:26;99514.22;;;23.64;84.44
4346;BME280;2186;49.866;7.986;2023-09-18T10:33:58;99513.50;;;23.62;84.37
4346;BME280;2186;49.866;7.986;2023-09-18T10:36:26;99517.47;;;23.77;83.95
4346;BME280;2186;49.866;7.986;2023-09-18T10:38:54;99515.88;;;23.84;83.39
4346;BME280;2186;49.866;7.986;2023-09-18T10:41:22;99510.63;;;23.73;83.89
4346;BME280;2186;49.866;7.986;2023-09-18T10:43:53;99511.03;;;23.78;82.78
4346;BME280;2186;49.866;7.986;2023-09-18T10:46:20;99502.75;;;23.70;82.62
4346;BME280;2186;49.866;7.986;2023-09-18T10:48:47;99508.16;;;23.89;82.50
4346;BME280;2186;49.866;7.986;2023-09-18T10:51:22;99505.59;;;23.88;82.51
4346;BME280;2186;49.866;7.986;2023-09-18T10:53:49;99514.34;;;23.72;83.64
4346;BME280;2186;49.866;7.986;2023-09-18T10:56:16;99509.72;;;23.92;82.73
4346;BME280;2186;49.866;7.986;2023-09-18T10:58:43;99520.03;;;23.88;83.24
4346;BME280;2186;49.866;7.986;2023-09-18T11:01:12;99517.97;;;24.00;82.82
4346;BME280;2186;49.866;7.986;2023-09-18T11:03:39;99509.19;;;23.69;83.33
4346;BME280;2186;49.866;7.986;2023-09-18T11:06:11;99510.88;;;23.80;83.48
4346;BME280;2186;49.866;7.986;2023-09-18T11:08:45;99511.09;;;23.59;83.44
4346;BME280;2186;49.866;7.986;2023-09-18T11:11:13;99525.44;;;23.88;83.28
4346;BME280;2186;49.866;7.986;2023-09-18T11:13:44;99520.09;;;24.06;82.77
4346;BME280;2186;49.866;7.986;2023-09-18T11:16:33;99508.38;;;24.06;82.99
4346;BME280;2186;49.866;7.986;2023-09-18T11:21:29;99531.03;;;23.87;82.86
4346;BME280;2186;49.866;7.986;2023-09-18T11:24:00;99533.06;;;23.75;83.11
4346;BME280;2186;49.866;7.986;2023-09-18T11:26:31;99534.94;;;23.65;83.48
4346;BME280;2186;49.866;7.986;2023-09-18T11:29:05;99531.44;;;23.82;83.33
4346;BME280;2186;49.866;7.986;2023-09-18T11:31:46;99529.78;;;23.72;83.38
4346;BME280;2186;49.866;7.986;2023-09-18T11:34:21;99525.34;;;23.71;83.57
4346;BME280;2186;49.866;7.986;2023-09-18T11:36:49;99521.19;;;23.76;82.83
4346;BME280;2186;49.866;7.986;2023-09-18T11:42:13;99529.41;;;23.94;82.94
4346;BME280;2186;49.866;7.986;2023-09-18T11:44:40;99529.25;;;24.05;83.44
4346;BME280;2186;49.866;7.986;2023-09-18T11:47:23;99518.59;;;24.21;82.33
4346;BME280;2186;49.866;7.986;2023-09-18T11:49:51;99517.78;;;24.11;81.41
4346;BME280;2186;49.866;7.986;2023-09-18T11:52:27;99508.91;;;24.19;81.51
4346;BME280;2186;49.866;7.986;2023-09-18T11:54:57;99518.69;;;24.39;81.36
4346;BME280;2186;49.866;7.986;2023-09-18T11:57:24;99528.31;;;24.34;80.76
4346;BME280;2186;49.866;7.986;2023-09-18T11:59:51;99516.28;;;24.36;80.65
4346;BME280;2186;49.866;7.986;2023-09-18T12:02:25;99515.69;;;24.42;80.53
4346;BME280;2186;49.866;7.986;2023-09-18T12:04:54;99510.91;;;24.54;79.47
4346;BME280;2186;49.866;7.986;2023-09-18T12:07:21;99508.72;;;24.58;79.34
4346;BME280;2186;49.866;7.986;2023-09-18T12:09:47;99522.66;;;24.45;80.06
4346;BME280;2186;49.866;7.986;2023-09-18T12:12:15;99516.94;;;24.48;78.97
4346;BME280;2186;49.866;7.986;2023-09-18T12:14:44;99512.00;;;24.24;80.14
4346;BME280;2186;49.866;7.986;2023-09-18T12:17:15;99520.41;;;24.40;79.50
4346;BME280;2186;49.866;7.986;2023-09-18T12:19:54;99521.78;;;24.72;79.64
4346;BME280;2186;49.866;7.986;2023-09-18T12:22:28;99529.25;;;24.70;78.91
4346;BME280;2186;49.866;7.986;2023-09-18T12:25:14;99525.53;;;24.71;78.69
4346;BME280;2186;49.866;7.986;2023-09-18T12:27:43;99521.63;;;24.56;79.10
4346;BME280;2186;49.866;7.986;2023-09-18T12:30:10;99518.47;;;24.50;79.43
4346;BME280;2186;49.866;7.986;2023-09-18T12:32:41;99514.66;;;24.71;78.74
4346;BME280;2186;49.866;7.986;2023-09-18T12:35:08;99516.59;;;24.78;79.13
4346;BME280;2186;49.866;7.986;2023-09-18T12:37:42;99518.50;;;24.96;78.82
4346;BME280;2186;49.866;7.986;2023-09-18T12:40:29;99530.19;;;24.78;78.83
4346;BME280;2186;49.866;7.986;2023-09-18T12:42:57;99510.47;;;24.94;78.62
4346;BME280;2186;49.866;7.986;2023-09-18T12:45:24;99511.88;;;24.98;77.64
4346;BME280;2186;49.866;7.986;2023-09-18T12:47:53;99506.19;;;24.74;77.34
4346;BME280;2186;49.866;7.986;2023-09-18T12:50:20;99503.63;;;24.90;77.73
4346;BME280;2186;49.866;7.986;2023-09-18T12:52:47;99497.59;;;25.14;77.56
4346;BME280;2186;49.866;7.986;2023-09-18T12:55:25;99507.78;;;25.12;75.93
4346;BME280;2186;49.866;7.986;2023-09-18T12:57:53;99495.72;;;24.97;75.09
4346;BME280;2186;49.866;7.986;2023-09-18T13:00:21;99509.34;;;25.15;73.82
4346;BME280;2186;49.866;7.986;2023-09-18T13:02:49;99515.25;;;25.28;73.92
4346;BME280;2186;49.866;7.986;2023-09-18T13:05:22;99507.22;;;25.44;73.47
4346;BME280;2186;49.866;7.986;2023-09-18T13:07:53;99511.41;;;25.21;71.60
4346;BME280;2186;49.866;7.986;2023-09-18T13:10:20;99508.41;;;25.24;73.07
4346;BME280;2186;49.866;7.986;2023-09-18T13:12:52;99513.06;;;25.31;71.77
4346;BME280;2186;49.866;7.986;2023-09-18T13:15:29;99508.38;;;24.88;73.00
4346;BME280;2186;49.866;7.986;2023-09-18T13:17:58;99504.13;;;25.21;72.81
4346;BME280;2186;49.866;7.986;2023-09-18T13:20:27;99499.28;;;25.33;71.89
4346;BME280;2186;49.866;7.986;2023-09-18T13:22:56;99492.47;;;25.29;70.74
4346;BME280;2186;49.866;7.986;2023-09-18T13:25:25;99478.00;;;25.28;71.71
4346;BME280;2186;49.866;7.986;2023-09-18T13:27:53;99482.63;;;25.54;71.64
4346;BME280;2186;49.866;7.986;2023-09-18T13:30:21;99476.41;;;25.44;70.50
4346;BME280;2186;49.866;7.986;2023-09-18T13:32:49;99474.88;;;25.41;71.10